Time;durP1;ratioP1;P1;durP2;ratioP2;P2;SDS_P1;SDS_P2;PMS_P1;PMS_P2;Temp;Humidity;BMP_temperature;BMP_pressure;BME280_temperature;BME280_humidity;BME280_pressure;Samples;Min_cycle;Max_cycle;Signal;HPM_P1;HPM_P2
2022/03/28 00:01:52;;;;;;;14.02;7.95;;;;;;;9.56;40.94;102853.41;5050707;28;20025;-73
2022/03/28 00:04:17;;;;;;;15.40;8.43;;;;;;;9.71;40.60;102845.03;5050436;28;20033;-77
2022/03/28 00:06:43;;;;;;;15.35;8.85;;;;;;;9.98;40.03;102846.66;5050301;28;20453;-75
2022/03/28 00:09:08;;;;;;;11.57;7.22;;;;;;;9.81;39.90;102848.16;5050007;28;20033;-75
2022/03/28 00:11:34;;;;;;;15.70;7.88;;;;;;;9.81;40.24;102849.00;5051009;28;20467;-74
2022/03/28 00:14:00;;;;;;;17.33;7.43;;;;;;;9.60;40.44;102845.69;5032443;28;20036;-74
2022/03/28 00:16:25;;;;;;;11.32;7.70;;;;;;;9.63;39.70;102839.81;5050658;28;20375;-75
2022/03/28 00:18:51;;;;;;;15.35;8.32;;;;;;;9.86;39.80;102839.41;5031782;28;20408;-74
2022/03/28 00:21:16;;;;;;;12.82;6.85;;;;;;;9.30;41.07;102839.81;5050131;28;20116;-75
2022/03/28 00:23:42;;;;;;;12.25;7.57;;;;;;;8.48;43.06;102836.50;5050268;28;20131;-76
2022/03/28 00:26:07;;;;;;;15.30;9.07;;;;;;;8.84;42.32;102837.03;5050666;28;20055;-75
2022/03/28 00:28:33;;;;;;;16.25;9.20;;;;;;;8.96;41.97;102838.09;5050411;28;20132;-74
2022/03/28 00:30:58;;;;;;;18.63;10.48;;;;;;;9.14;41.51;102832.09;5050500;28;20094;-75
2022/03/28 00:33:24;;;;;;;18.95;10.80;;;;;;;8.95;42.25;102831.03;5050264;28;20033;-76
2022/03/28 00:35:49;;;;;;;19.67;9.52;;;;;;;9.20;41.84;102828.56;5067507;28;20208;-76
2022/03/28 00:38:14;;;;;;;22.10;10.35;;;;;;;8.75;42.46;102827.44;5070786;28;20111;-75
2022/03/28 00:40:40;;;;;;;23.38;10.35;;;;;;;9.17;41.72;102828.97;5069749;28;20113;-74
2022/03/28 00:43:08;;;;;;;18.35;10.00;;;;;;;8.13;43.77;102842.13;5070391;28;20032;-75
2022/03/28 00:45:39;;;;;;;19.83;9.38;;;;;;;8.32;43.43;102836.00;5072142;28;20037;-76
2022/03/28 00:48:06;;;;;;;20.65;9.57;;;;;;;8.66;42.58;102833.25;5073716;28;20028;-75
2022/03/28 00:50:32;;;;;;;25.33;11.20;;;;;;;8.69;42.82;102832.81;5073873;28;20060;-75
2022/03/28 00:52:59;;;;;;;22.17;10.70;;;;;;;8.77;42.71;102828.06;5073461;28;20060;-74
2022/03/28 00:55:25;;;;;;;21.33;10.30;;;;;;;9.23;41.95;102830.03;5073916;28;20033;-75
2022/03/28 00:57:50;;;;;;;24.88;10.73;;;;;;;8.91;42.97;102826.22;5073806;28;20146;-75
2022/03/28 01:00:16;;;;;;;21.05;10.98;;;;;;;8.46;43.99;102824.22;5073339;28;20111;-75
2022/03/28 01:02:42;;;;;;;27.33;10.95;;;;;;;8.46;44.50;102825.06;5073777;28;20074;-75
2022/03/28 01:05:09;;;;;;;36.92;11.80;;;;;;;8.96;43.50;102819.16;5073929;28;20438;-75
2022/03/28 01:07:34;;;;;;;32.80;13.50;;;;;;;8.56;44.00;102814.69;5073571;28;20116;-75
2022/03/28 01:10:03;;;;;;;29.02;10.63;;;;;;;9.36;42.83;102816.47;5073367;28;20553;-77
2022/03/28 01:12:32;;;;;;;30.40;11.52;;;;;;;9.63;41.90;102815.44;5073250;28;20043;-74
2022/03/28 01:14:58;;;;;;;31.73;13.57;;;;;;;9.31;42.96;102810.84;5073248;28;20481;-75
2022/03/28 01:20:09;;;;;;;30.17;12.43;;;;;;;9.50;43.09;102804.63;5088441;28;20079;-75
2022/03/28 01:22:35;;;;;;;30.63;11.93;;;;;;;9.69;42.29;102801.88;5063216;28;20497;-75
2022/03/28 01:25:06;;;;;;;25.33;10.50;;;;;;;9.33;43.46;102797.94;5071684;28;20025;-75
2022/03/28 01:27:33;;;;;;;31.95;12.05;;;;;;;9.05;44.62;102798.13;5072941;28;20041;-76
2022/03/28 01:29:58;;;;;;;25.48;11.13;;;;;;;8.67;44.66;102794.31;5073131;28;20185;-76
2022/03/28 01:32:24;;;;;;;32.63;12.40;;;;;;;9.02;44.87;102789.59;5073531;28;20037;-75
2022/03/28 01:34:50;;;;;;;34.53;11.85;;;;;;;9.04;46.70;102799.16;5072759;28;20516;-76
2022/03/28 01:37:16;;;;;;;42.38;13.20;;;;;;;9.59;43.54;102801.47;5072321;28;20028;-75
2022/03/28 01:39:41;;;;;;;33.17;11.48;;;;;;;8.98;45.37;102790.00;5072799;28;20047;-75
2022/03/28 01:42:07;;;;;;;32.33;12.07;;;;;;;8.36;46.77;102775.91;5072553;28;20113;-76
2022/03/28 01:44:33;;;;;;;29.90;13.18;;;;;;;9.52;44.61;102768.16;5073427;28;20044;-75
2022/03/28 01:46:58;;;;;;;33.10;11.98;;;;;;;9.64;44.04;102776.47;5071876;28;20502;-75
2022/03/28 01:49:23;;;;;;;30.55;11.40;;;;;;;9.39;44.87;102770.00;5073199;28;20047;-76
2022/03/28 01:51:49;;;;;;;32.05;11.48;;;;;;;9.50;44.75;102769.41;5072408;28;20039;-76
2022/03/28 01:54:15;;;;;;;27.60;10.43;;;;;;;9.38;44.68;102762.91;5072658;28;20036;-75
2022/03/28 01:56:42;;;;;;;34.03;11.95;;;;;;;9.01;46.02;102764.38;5072516;28;20028;-75
2022/03/28 01:59:08;;;;;;;32.28;11.55;;;;;;;9.57;44.31;102754.78;5073031;28;20020;-75
2022/03/28 02:01:34;;;;;;;30.58;11.90;;;;;;;9.76;43.89;102756.59;5072477;28;20036;-75
2022/03/28 02:04:00;;;;;;;34.58;11.70;;;;;;;10.37;42.31;102756.19;5054159;28;20040;-76
2022/03/28 02:06:26;;;;;;;26.27;11.60;;;;;;;9.99;43.18;102758.84;5072407;28;20052;-75
2022/03/28 02:08:52;;;;;;;25.58;10.07;;;;;;;9.70;43.95;102749.31;5071979;28;20481;-76
2022/03/28 02:11:17;;;;;;;19.15;7.65;;;;;;;9.80;43.42;102749.72;5072633;28;20071;-76
2022/03/28 02:13:42;;;;;;;18.83;9.27;;;;;;;10.06;42.87;102742.56;5072018;28;20440;-75
2022/03/28 02:16:09;;;;;;;17.55;8.18;;;;;;;9.88;43.42;102742.41;5085374;28;20040;-76
2022/03/28 02:18:34;;;;;;;18.90;6.80;;;;;;;9.03;45.39;102737.09;5092251;28;20066;-75
2022/03/28 02:21:00;;;;;;;14.57;6.70;;;;;;;9.22;44.95;102737.09;5091969;28;20040;-75
2022/03/28 02:23:25;;;;;;;14.13;7.05;;;;;;;9.60;44.20;102735.41;5092917;28;20036;-75
2022/03/28 02:25:50;;;;;;;15.55;6.40;;;;;;;9.43;44.31;102727.94;5086955;28;20029;-75
2022/03/28 02:28:16;;;;;;;11.23;5.30;;;;;;;8.97;45.68;102733.34;5071849;28;20446;-75
2022/03/28 02:30:42;;;;;;;13.73;4.88;;;;;;;8.52;46.90;102729.56;5071570;28;20128;-75
2022/03/28 02:33:08;;;;;;;12.20;5.28;;;;;;;9.04;45.66;102731.47;5071953;28;20502;-75
2022/03/28 02:35:33;;;;;;;19.48;5.65;;;;;;;8.64;46.98;102722.47;5071982;28;20071;-75
2022/03/28 02:38:01;;;;;;;11.82;6.07;;;;;;;8.49;47.16;102721.84;5071762;28;20044;-75
2022/03/28 02:40:31;;;;;;;8.90;5.20;;;;;;;9.36;45.43;102711.66;5071629;28;20047;-76
2022/03/28 02:42:58;;;;;;;10.40;5.68;;;;;;;8.44;47.93;102721.63;5071666;28;20090;-76
2022/03/28 02:45:29;;;;;;;21.50;5.95;;;;;;;8.74;47.19;102717.50;5071767;28;20063;-76
2022/03/28 02:47:54;;;;;;;10.15;6.20;;;;;;;8.82;46.64;102711.88;5071457;28;20033;-77
2022/03/28 02:50:20;;;;;;;15.95;5.65;;;;;;;9.21;45.58;102707.50;5072220;28;20535;-76
2022/03/28 02:52:46;;;;;;;17.20;6.15;;;;;;;9.24;45.76;102712.50;5071572;28;20051;-75
2022/03/28 02:55:11;;;;;;;11.30;6.03;;;;;;;9.28;46.35;102708.31;5071652;28;20043;-75
2022/03/28 02:57:37;;;;;;;9.52;5.50;;;;;;;9.51;45.03;102700.59;5071443;28;20527;-76
2022/03/28 03:00:10;;;;;;;11.70;5.10;;;;;;;8.98;46.19;102694.41;5071402;28;20482;-75
2022/03/28 03:02:40;;;;;;;8.10;4.15;;;;;;;9.10;45.62;102689.19;5063826;28;20040;-75
2022/03/28 03:05:06;;;;;;;5.47;3.42;;;;;;;9.31;45.00;102683.53;5071498;28;20048;-74
2022/03/28 03:07:32;;;;;;;12.43;3.92;;;;;;;8.62;46.94;102686.69;5070396;28;20060;-76
2022/03/28 03:09:57;;;;;;;10.82;3.78;;;;;;;8.04;48.19;102681.94;5070872;28;20107;-75
2022/03/28 03:12:23;;;;;;;9.90;3.80;;;;;;;8.92;46.17;102677.13;5080849;28;20032;-75
2022/03/28 03:14:48;;;;;;;12.60;4.95;;;;;;;8.89;46.30;102677.56;5091332;28;20063;-75
2022/03/28 03:17:13;;;;;;;7.75;4.90;;;;;;;9.76;44.06;102664.44;5082352;28;20021;-75
2022/03/28 03:19:40;;;;;;;8.20;4.28;;;;;;;9.75;43.93;102670.94;5071422;28;20043;-75
2022/03/28 03:22:06;;;;;;;6.88;3.60;;;;;;;9.35;45.44;102672.03;5071406;28;20040;-75
2022/03/28 03:24:32;;;;;;;9.13;4.72;;;;;;;9.72;44.58;102667.81;5072047;28;20351;-75
2022/03/28 03:26:57;;;;;;;14.07;5.88;;;;;;;9.94;43.78;102669.16;5071534;28;20066;-76
2022/03/28 03:29:23;;;;;;;8.60;4.30;;;;;;;10.25;43.33;102666.50;5072196;28;20021;-76
2022/03/28 03:31:49;;;;;;;10.63;4.30;;;;;;;10.24;42.99;102664.00;5071753;28;20056;-75
2022/03/28 03:34:14;;;;;;;8.30;3.97;;;;;;;10.05;43.83;102657.66;5071055;28;20040;-74
2022/03/28 03:36:39;;;;;;;7.40;4.22;;;;;;;10.03;43.42;102654.31;5053168;28;20039;-76
2022/03/28 03:39:05;;;;;;;6.32;3.78;;;;;;;9.61;44.75;102657.63;5071649;28;20029;-74
2022/03/28 03:41:30;;;;;;;10.52;3.83;;;;;;;9.54;44.11;102659.53;5072169;28;20143;-75
2022/03/28 03:43:55;;;;;;;6.00;3.67;;;;;;;9.66;44.05;102652.41;5070880;28;20139;-75
2022/03/28 03:46:21;;;;;;;8.32;3.72;;;;;;;9.58;44.41;102649.94;5071063;28;20124;-75
2022/03/28 03:48:46;;;;;;;6.95;4.25;;;;;;;9.45;44.74;102647.28;5071502;28;20113;-74
2022/03/28 03:51:13;;;;;;;7.32;3.67;;;;;;;9.56;44.33;102652.88;5071991;28;20409;-74
2022/03/28 03:53:38;;;;;;;10.60;3.55;;;;;;;9.90;43.10;102645.44;5071628;28;20028;-75
2022/03/28 03:56:04;;;;;;;11.52;2.90;;;;;;;10.06;42.80;102647.63;5072432;28;20032;-74
2022/03/28 03:58:29;;;;;;;5.97;3.22;;;;;;;9.92;43.00;102644.13;5071612;28;20086;-76
2022/03/28 04:00:55;;;;;;;4.85;2.72;;;;;;;10.26;41.97;102640.19;5071001;28;20433;-75
2022/03/28 04:03:20;;;;;;;14.65;3.78;;;;;;;9.26;44.33;102638.13;5051680;28;20437;-75
2022/03/28 04:05:45;;;;;;;8.13;3.47;;;;;;;9.57;44.15;102632.00;5051610;28;20545;-76
2022/03/28 04:08:11;;;;;;;8.98;3.33;;;;;;;9.39;44.68;102639.97;5072029;28;20020;-75
2022/03/28 04:10:36;;;;;;;5.05;2.70;;;;;;;9.07;44.89;102628.16;5090729;28;20062;-75
2022/03/28 04:13:03;;;;;;;6.45;3.47;;;;;;;9.71;43.56;102629.03;5091086;28;20086;-75
2022/03/28 04:15:29;;;;;;;7.82;3.38;;;;;;;9.52;43.99;102635.38;5086101;28;20506;-74
2022/03/28 04:17:54;;;;;;;4.72;3.22;;;;;;;9.30;44.72;102635.81;5071161;28;20026;-77
2022/03/28 04:20:20;;;;;;;30.83;5.30;;;;;;;7.75;48.73;102637.16;5074298;28;20032;-74
2022/03/28 04:22:46;;;;;;;5.13;2.83;;;;;;;8.11;48.26;102643.09;5074721;28;20041;-75
2022/03/28 04:25:13;;;;;;;15.18;2.92;;;;;;;7.04;50.55;102632.22;5074367;28;20037;-76
2022/03/28 04:27:39;;;;;;;6.97;2.72;;;;;;;8.11;48.47;102639.56;5074127;28;20044;-75
2022/03/28 04:30:07;;;;;;;4.32;2.58;;;;;;;8.68;46.68;102622.81;5074316;28;20025;-74
2022/03/28 04:32:33;;;;;;;6.65;3.42;;;;;;;8.82;46.02;102627.13;5074941;28;20033;-75
2022/03/28 04:34:58;;;;;;;6.32;3.67;;;;;;;9.36;44.92;102621.41;5073486;28;20055;-74
2022/03/28 04:37:24;;;;;;;6.40;3.75;;;;;;;9.47;44.31;102623.47;5073486;28;20049;-75
2022/03/28 04:39:49;;;;;;;7.28;3.88;;;;;;;9.54;44.79;102617.03;5056159;28;20501;-76
2022/03/28 04:42:15;;;;;;;6.55;4.25;;;;;;;9.11;45.76;102625.88;5074009;28;20043;-75
2022/03/28 04:44:40;;;;;;;6.93;3.60;;;;;;;8.08;48.06;102629.16;5074393;28;20029;-75
2022/03/28 04:47:06;;;;;;;7.82;4.40;;;;;;;8.94;46.69;102622.75;5074500;28;20500;-76
2022/03/28 04:49:32;;;;;;;7.60;3.75;;;;;;;9.35;45.06;102626.00;5074279;28;20051;-75
2022/03/28 04:51:57;;;;;;;6.47;4.07;;;;;;;8.91;46.27;102626.75;5055768;28;20398;-76
2022/03/28 04:54:23;;;;;;;6.20;3.40;;;;;;;8.96;46.05;102629.63;5074310;28;20571;-74
2022/03/28 04:56:48;;;;;;;8.65;3.75;;;;;;;8.34;47.59;102628.38;5073889;28;20032;-75
2022/03/28 04:59:13;;;;;;;7.72;3.30;;;;;;;7.93;49.01;102628.50;5058255;28;20091;-75
2022/03/28 05:01:39;;;;;;;5.65;3.15;;;;;;;8.37;47.45;102628.81;5053896;28;20195;-76
2022/03/28 05:04:04;;;;;;;5.30;3.20;;;;;;;8.67;46.95;102623.81;5053672;28;20410;-75
2022/03/28 05:06:30;;;;;;;6.15;3.60;;;;;;;9.09;46.03;102623.38;5053569;28;20064;-75
2022/03/28 05:08:55;;;;;;;6.43;3.75;;;;;;;8.92;46.28;102622.97;5053431;28;20510;-75
2022/03/28 05:11:22;;;;;;;11.25;3.95;;;;;;;6.97;51.07;102626.72;5054399;28;20029;-75
2022/03/28 05:13:51;;;;;;;7.65;4.18;;;;;;;8.47;47.72;102621.13;5053240;28;20051;-75
2022/03/28 05:16:17;;;;;;;7.70;4.25;;;;;;;9.35;45.52;102623.28;5053528;28;20041;-75
2022/03/28 05:18:43;;;;;;;6.93;3.72;;;;;;;9.34;45.06;102618.94;5053647;28;20033;-75
2022/03/28 05:21:08;;;;;;;7.53;4.15;;;;;;;9.62;44.12;102622.19;5053396;28;20047;-77
2022/03/28 05:23:34;;;;;;;10.23;4.10;;;;;;;10.09;43.09;102617.34;5054220;28;20260;-75
2022/03/28 05:25:59;;;;;;;8.82;3.00;;;;;;;9.88;43.11;102614.97;5053765;28;20036;-75
2022/03/28 05:28:25;;;;;;;9.13;3.65;;;;;;;9.55;43.75;102615.13;5053784;28;20044;-75
2022/03/28 05:30:51;;;;;;;6.57;3.63;;;;;;;9.65;43.70;102612.78;5052798;28;20041;-75
2022/03/28 05:33:17;;;;;;;9.23;4.00;;;;;;;9.12;45.23;102605.84;5053469;28;20037;-75
2022/03/28 05:35:43;;;;;;;5.22;3.70;;;;;;;9.14;44.37;102601.06;5063826;28;20041;-75
2022/03/28 05:38:09;;;;;;;7.45;3.45;;;;;;;9.46;44.04;102601.00;5065740;28;20043;-76
2022/03/28 05:40:35;;;;;;;8.63;3.75;;;;;;;9.17;44.99;102600.66;5052694;28;20033;-75
2022/03/28 05:43:01;;;;;;;6.38;3.70;;;;;;;9.75;43.56;102600.44;5053020;28;20044;-76
2022/03/28 05:45:27;;;;;;;6.30;3.75;;;;;;;8.80;45.81;102597.59;5053506;28;20037;-75
2022/03/28 05:47:52;;;;;;;8.20;4.28;;;;;;;9.21;45.21;102597.31;5054064;28;20091;-75
2022/03/28 05:50:18;;;;;;;8.98;4.60;;;;;;;9.76;43.04;102595.88;5054069;28;20032;-76
2022/03/28 05:52:43;;;;;;;8.65;4.53;;;;;;;9.77;43.57;102598.34;5053624;28;20159;-75
2022/03/28 05:55:09;;;;;;;8.93;4.00;;;;;;;10.06;42.74;102591.50;5053207;28;20049;-77
2022/03/28 05:57:34;;;;;;;7.85;4.22;;;;;;;9.36;45.04;102588.91;5053448;28;20044;-75
2022/03/28 06:00:00;;;;;;;11.93;4.55;;;;;;;9.34;45.04;102596.41;5056403;28;20041;-75
2022/03/28 06:02:26;;;;;;;6.63;3.92;;;;;;;8.45;45.86;102588.03;5073938;28;20080;-76
2022/03/28 06:04:51;;;;;;;6.43;3.15;;;;;;;7.98;47.95;102586.28;5073679;28;20494;-76
2022/03/28 06:07:17;;;;;;;5.47;3.22;;;;;;;8.77;46.43;102580.94;5073360;28;20029;-76
2022/03/28 06:09:42;;;;;;;8.15;3.70;;;;;;;8.18;47.79;102588.19;5051625;28;20402;-76
2022/03/28 06:12:08;;;;;;;6.90;3.67;;;;;;;8.80;46.34;102583.25;5069459;28;20105;-75
2022/03/28 06:14:34;;;;;;;6.45;3.88;;;;;;;8.67;46.77;102586.78;5073391;28;20098;-77
2022/03/28 06:16:59;;;;;;;8.00;3.25;;;;;;;9.17;45.26;102587.94;5072837;28;20051;-75
2022/03/28 06:19:25;;;;;;;6.97;3.33;;;;;;;9.72;44.05;102587.31;5067812;28;20120;-75
2022/03/28 06:21:50;;;;;;;6.60;3.60;;;;;;;9.66;44.00;102585.47;5056088;28;20041;-76
2022/03/28 06:24:16;;;;;;;6.05;3.45;;;;;;;9.18;45.72;102581.47;5051684;28;20517;-76
2022/03/28 06:26:41;;;;;;;6.53;3.05;;;;;;;9.67;44.52;102583.59;5051565;28;20109;-77
2022/03/28 06:29:09;;;;;;;6.63;3.55;;;;;;;9.50;45.00;102585.13;5052831;28;20048;-79
2022/03/28 06:31:34;;;;;;;6.00;3.63;;;;;;;9.06;45.72;102571.50;5051820;28;20083;-76
2022/03/28 06:34:02;;;;;;;8.05;4.07;;;;;;;9.36;44.77;102567.25;5051980;28;20036;-77
2022/03/28 06:36:29;;;;;;;9.52;4.65;;;;;;;9.81;43.80;102558.06;5051055;28;20120;-76
2022/03/28 06:38:55;;;;;;;11.02;4.30;;;;;;;9.00;46.00;102559.66;5066041;28;20024;-77
2022/03/28 06:41:21;;;;;;;6.93;3.83;;;;;;;9.78;44.13;102559.34;5072300;28;20497;-77
2022/03/28 06:43:47;;;;;;;10.82;4.10;;;;;;;9.89;44.54;102559.69;5070908;28;20040;-75
2022/03/28 06:46:13;;;;;;;9.38;4.35;;;;;;;10.45;42.84;102553.22;5071592;28;20044;-74
2022/03/28 06:48:39;;;;;;;10.23;4.85;;;;;;;9.64;45.42;102557.78;5058577;28;20117;-76
2022/03/28 06:51:06;;;;;;;10.25;4.95;;;;;;;9.98;44.70;102571.97;5052727;28;20116;-76
2022/03/28 06:53:31;;;;;;;9.80;5.22;;;;;;;10.26;44.08;102561.50;5051292;28;20117;-77
2022/03/28 06:55:57;;;;;;;8.38;4.35;;;;;;;10.12;43.47;102565.38;5052467;28;20434;-74
2022/03/28 06:58:22;;;;;;;7.45;4.03;;;;;;;10.30;43.63;102571.72;5052092;28;20032;-75
2022/03/28 07:00:48;;;;;;;12.10;5.15;;;;;;;10.39;43.36;102578.50;5066434;28;20041;-76
2022/03/28 07:03:13;;;;;;;14.05;5.85;;;;;;;9.91;44.86;102572.00;5051595;28;20067;-76
2022/03/28 07:05:39;;;;;;;10.55;5.70;;;;;;;10.37;44.05;102572.47;5051641;28;20127;-76
2022/03/28 07:08:04;;;;;;;8.70;4.97;;;;;;;8.68;47.65;102572.19;5051606;28;20448;-74
2022/03/28 07:10:30;;;;;;;9.25;4.63;;;;;;;9.60;45.43;102566.53;5050656;28;20124;-76
2022/03/28 07:12:55;;;;;;;11.55;5.43;;;;;;;10.03;44.72;102564.81;5051293;28;20037;-75
2022/03/28 07:15:21;;;;;;;9.50;5.15;;;;;;;9.50;45.96;102566.19;5016399;28;20116;-76
2022/03/28 07:17:56;;;;;;;12.45;6.07;;;;;;;10.13;44.84;102577.91;5051277;28;20405;-74
2022/03/28 07:20:29;;;;;;;9.88;4.97;;;;;;;10.42;44.26;102558.25;5047836;28;20033;-75
2022/03/28 07:22:56;;;;;;;12.40;5.30;;;;;;;10.61;43.28;102571.69;5048451;28;20039;-75
2022/03/28 07:25:23;;;;;;;10.80;5.35;;;;;;;10.41;43.99;102562.84;5050690;28;20055;-75
2022/03/28 07:27:49;;;;;;;9.98;5.13;;;;;;;10.56;43.55;102557.13;5050380;28;20036;-75
2022/03/28 07:30:15;;;;;;;14.35;6.07;;;;;;;10.93;43.39;102547.97;5050327;28;20032;-74
2022/03/28 07:32:41;;;;;;;16.17;6.63;;;;;;;10.86;43.04;102543.69;5051194;28;20505;-73
2022/03/28 07:35:08;;;;;;;13.38;6.97;;;;;;;10.44;44.22;102543.41;5036950;28;20037;-75
2022/03/28 07:37:34;;;;;;;12.73;6.60;;;;;;;11.03;43.17;102533.88;5077210;28;20036;-75
2022/03/28 07:40:00;;;;;;;13.23;7.10;;;;;;;11.14;42.58;102541.28;5071078;28;20033;-77
2022/03/28 07:42:25;;;;;;;15.65;7.35;;;;;;;10.08;44.54;102537.88;5069636;28;20039;-75
2022/03/28 07:44:55;;;;;;;13.80;7.45;;;;;;;10.99;42.48;102528.06;5069217;28;20541;-74
2022/03/28 07:47:27;;;;;;;14.07;7.00;;;;;;;11.10;41.95;102527.28;5069837;28;20043;-76
2022/03/28 07:49:53;;;;;;;18.80;8.32;;;;;;;10.10;45.32;102527.63;5066884;28;20047;-76
2022/03/28 07:52:19;;;;;;;16.63;8.02;;;;;;;11.03;42.81;102523.00;5068768;28;20183;-76
2022/03/28 07:54:45;;;;;;;16.55;7.68;;;;;;;11.15;42.37;102519.31;5071525;28;20115;-74
2022/03/28 07:57:14;;;;;;;13.40;7.25;;;;;;;11.36;41.96;102505.22;5055092;28;20342;-75
2022/03/28 07:59:39;;;;;;;18.42;6.47;;;;;;;11.18;42.67;102515.28;5073290;28;20038;-75
2022/03/28 08:02:07;;;;;;;15.52;8.20;;;;;;;11.11;42.83;102511.81;5073505;28;20036;-76
2022/03/28 08:04:32;;;;;;;16.83;8.52;;;;;;;10.99;43.29;102513.63;5073214;28;20121;-76
2022/03/28 08:06:58;;;;;;;15.88;8.52;;;;;;;11.50;41.85;102520.34;5080497;28;20044;-75
2022/03/28 08:09:24;;;;;;;16.55;7.88;;;;;;;11.75;41.60;102519.38;5094694;28;20036;-77
2022/03/28 08:11:49;;;;;;;16.95;7.85;;;;;;;11.78;41.49;102518.91;5094798;28;20020;-76
2022/03/28 08:14:15;;;;;;;11.80;7.05;;;;;;;11.84;41.45;102516.09;5095247;28;20053;-75
2022/03/28 08:16:40;;;;;;;13.52;8.18;;;;;;;11.46;41.75;102510.94;5095289;28;20131;-75
2022/03/28 08:19:05;;;;;;;12.10;6.57;;;;;;;10.46;44.09;102511.47;5077200;28;20645;-74
2022/03/28 08:21:31;;;;;;;13.38;7.15;;;;;;;10.86;43.35;102509.22;5073789;28;20052;-75
2022/03/28 08:23:57;;;;;;;14.70;6.85;;;;;;;11.23;42.57;102507.28;5073566;28;20103;-74
2022/03/28 08:26:25;;;;;;;13.82;8.13;;;;;;;11.08;42.93;102520.44;5075385;28;20032;-74
2022/03/28 08:28:51;;;;;;;17.92;8.13;;;;;;;11.61;41.93;102515.97;5074512;28;20031;-73
2022/03/28 08:31:17;;;;;;;16.13;8.38;;;;;;;11.22;43.04;102527.34;5072442;28;20028;-75
2022/03/28 08:33:42;;;;;;;13.30;7.80;;;;;;;11.24;42.53;102533.38;5073716;28;20134;-73
2022/03/28 08:36:08;;;;;;;16.17;8.05;;;;;;;10.73;43.52;102525.63;5054609;28;20071;-72
2022/03/28 08:38:35;;;;;;;13.13;7.15;;;;;;;11.40;42.23;102520.03;5071262;28;20086;-75
2022/03/28 08:41:01;;;;;;;15.57;7.95;;;;;;;11.20;42.66;102521.31;5073222;28;20036;-75
2022/03/28 08:43:27;;;;;;;15.50;7.72;;;;;;;11.49;42.01;102515.13;5073415;28;20028;-74
2022/03/28 08:45:53;;;;;;;11.52;7.05;;;;;;;11.24;42.10;102515.22;5073344;28;20101;-74
2022/03/28 08:48:18;;;;;;;14.05;7.07;;;;;;;11.50;42.17;102509.47;5054754;28;20063;-73
2022/03/28 08:50:46;;;;;;;21.15;7.93;;;;;;;11.15;42.10;102504.88;5074264;28;20027;-73
2022/03/28 08:53:13;;;;;;;11.75;7.70;;;;;;;11.83;41.13;102495.38;5074683;28;20033;-73
2022/03/28 08:55:43;;;;;;;21.35;8.30;;;;;;;11.55;41.82;102495.19;5073407;28;20037;-73
2022/03/28 08:58:09;;;;;;;13.35;8.40;;;;;;;11.52;42.52;102492.91;5074010;28;20032;-73
2022/03/28 09:00:35;;;;;;;16.25;8.90;;;;;;;11.69;41.61;102493.91;5073397;28;20123;-72
2022/03/28 09:03:01;;;;;;;14.20;8.23;;;;;;;10.79;42.90;102494.84;5073412;28;20119;-74
2022/03/28 09:05:33;;;;;;;14.00;7.57;;;;;;;10.74;43.85;102497.44;5073258;28;20040;-74
2022/03/28 09:07:59;;;;;;;14.25;9.07;;;;;;;11.34;42.55;102499.19;5073247;28;20070;-75
2022/03/28 09:10:27;;;;;;;16.05;8.73;;;;;;;11.77;41.39;102500.94;5073115;28;20037;-75
2022/03/28 09:13:02;;;;;;;12.15;7.10;;;;;;;11.38;41.99;102505.84;5072831;28;20514;-73
2022/03/28 09:15:50;;;;;;;12.10;7.22;;;;;;;11.87;40.66;102490.28;5073221;28;20037;-73
2022/03/28 09:18:20;;;;;;;15.43;8.50;;;;;;;12.14;40.74;102494.25;5072990;28;20047;-73
2022/03/28 09:20:55;;;;;;;15.35;7.95;;;;;;;11.92;41.09;102498.59;5072786;28;20048;-74
2022/03/28 09:23:45;;;;;;;13.93;8.27;;;;;;;12.93;39.37;102483.56;5073444;28;20040;-74
2022/03/28 09:26:16;;;;;;;14.68;7.80;;;;;;;12.95;38.41;102486.06;5067684;28;20478;-74
2022/03/28 09:28:46;;;;;;;;;;;;;;;12.26;40.18;102484.19;5053329;28;20087;-73
2022/03/28 09:31:21;;;;;;;15.77;8.07;;;;;;;12.85;38.75;102489.41;5052492;28;19990;-74
2022/03/28 09:34:17;;;;;;;15.23;8.50;;;;;;;12.88;38.92;102491.66;5052741;28;20124;-72
2022/03/28 09:36:51;;;;;;;15.90;8.05;;;;;;;12.33;39.94;102474.03;5009951;28;20260;-73
2022/03/28 09:39:21;;;;;;;20.92;9.13;;;;;;;12.55;39.81;102482.47;4993601;28;20062;-74
2022/03/28 09:42:03;;;;;;;17.38;9.13;;;;;;;11.21;42.58;102482.25;5009617;28;20051;-74
2022/03/28 09:45:00;;;;;;;13.70;8.80;;;;;;;12.02;41.18;102480.66;5010591;28;20121;-74
2022/03/28 09:47:25;;;;;;;15.63;8.90;;;;;;;12.56;39.94;102471.31;4932814;29;20075;-75
2022/03/28 09:49:57;;;;;;;16.48;9.07;;;;;;;13.18;38.76;102473.19;4932659;29;20054;-74
2022/03/28 09:52:28;;;;;;;16.27;8.95;;;;;;;13.23;38.32;102467.03;4932540;29;20047;-74
2022/03/28 09:55:00;;;;;;;17.20;9.60;;;;;;;12.48;40.20;102468.97;4943396;28;20111;-74
2022/03/28 09:57:34;;;;;;;16.08;8.90;;;;;;;12.99;39.58;102465.44;4951685;28;20031;-72
2022/03/28 10:00:14;;;;;;;18.30;8.90;;;;;;;12.87;39.15;102464.66;4951347;28;20457;-74
2022/03/28 10:02:41;;;;;;;17.65;8.95;;;;;;;12.83;39.67;102456.13;4951513;28;20136;-73
2022/03/28 10:05:07;;;;;;;14.77;9.10;;;;;;;12.81;39.76;102457.44;4951795;29;20076;-75
2022/03/28 10:07:33;;;;;;;18.42;9.05;;;;;;;12.87;39.73;102459.22;4951278;28;20057;-74
2022/03/28 10:10:00;;;;;;;15.02;9.00;;;;;;;13.13;38.86;102459.47;4950522;28;20130;-75
2022/03/28 10:12:25;;;;;;;18.23;8.55;;;;;;;12.86;39.25;102465.72;4950581;28;20031;-72
2022/03/28 10:14:57;;;;;;;19.08;10.30;;;;;;;13.22;38.60;102460.72;4989082;28;20555;-72
2022/03/28 10:17:24;;;;;;;14.73;9.10;;;;;;;13.75;37.82;102454.91;4990061;28;20038;-73
2022/03/28 10:19:50;;;;;;;19.35;9.77;;;;;;;12.99;39.23;102452.66;4989537;28;20039;-73
2022/03/28 10:22:20;;;;;;;16.90;9.05;;;;;;;12.76;39.73;102458.16;4989632;28;20041;-73
2022/03/28 10:24:49;;;;;;;18.25;9.73;;;;;;;11.92;41.41;102453.19;5062555;28;20048;-74
2022/03/28 10:27:15;;;;;;;18.02;9.77;;;;;;;13.05;39.56;102450.84;5057128;28;20029;-73
2022/03/28 10:29:44;;;;;;;19.10;10.93;;;;;;;12.80;39.28;102448.44;5051599;28;20089;-72
2022/03/28 10:32:20;;;;;;;17.30;8.00;;;;;;;14.23;36.83;102439.88;5052144;28;20407;-72
2022/03/28 10:34:48;;;;;;;18.70;9.77;;;;;;;13.38;38.27;102442.78;5053579;28;20044;-73
2022/03/28 10:37:35;;;;;;;13.43;8.75;;;;;;;13.99;37.20;102434.59;5071551;28;20123;-73
2022/03/28 10:40:19;;;;;;;18.85;10.40;;;;;;;14.42;36.43;102433.91;5070329;28;20047;-72
2022/03/28 10:42:52;;;;;;;12.95;8.77;;;;;;;14.11;37.23;102427.16;5069996;28;20055;-73
2022/03/28 10:45:19;;;;;;;12.85;8.00;;;;;;;14.01;37.07;102417.97;5051963;28;20079;-74
2022/03/28 10:47:56;;;;;;;21.73;9.90;;;;;;;13.72;37.09;102411.78;5069388;28;20043;-74
2022/03/28 10:50:28;;;;;;;20.05;9.75;;;;;;;13.91;37.14;102405.00;5072515;28;20377;-73
2022/03/28 10:53:13;;;;;;;15.70;10.07;;;;;;;13.81;37.38;102404.81;5071248;28;20063;-73
2022/03/28 10:55:43;;;;;;;21.13;10.52;;;;;;;13.51;38.16;102406.22;5066524;28;20028;-72
2022/03/28 10:58:25;;;;;;;16.38;10.45;;;;;;;13.02;39.19;102413.19;5070445;28;20429;-74
2022/03/28 11:01:08;;;;;;;15.73;9.85;;;;;;;12.46;40.63;102402.19;5059098;28;20067;-74
2022/03/28 11:03:35;;;;;;;22.27;11.95;;;;;;;13.81;37.61;102404.03;5071485;28;20047;-73
2022/03/28 11:06:01;;;;;;;25.80;10.95;;;;;;;13.07;38.69;102405.94;5070746;28;20043;-74
2022/03/28 11:08:40;;;;;;;17.25;11.13;;;;;;;13.84;37.57;102390.69;5071150;28;20029;-73
2022/03/28 11:11:18;;;;;;;24.67;12.32;;;;;;;14.19;36.86;102387.69;5070791;28;20071;-75
2022/03/28 11:13:56;;;;;;;19.38;10.48;;;;;;;14.06;36.91;102390.75;5048896;28;20040;-74
2022/03/28 11:16:38;;;;;;;21.23;11.98;;;;;;;15.16;35.02;102383.22;5051525;28;20025;-73
2022/03/28 11:19:29;;;;;;;17.83;10.02;;;;;;;13.93;37.19;102383.75;5060353;28;20036;-73
2022/03/28 11:21:58;;;;;;;25.35;11.52;;;;;;;13.64;37.61;102371.28;5069707;28;20187;-73
2022/03/28 11:24:52;;;;;;;20.42;11.77;;;;;;;12.81;39.21;102378.47;5069945;28;20041;-74
2022/03/28 11:27:18;;;;;;;20.35;10.80;;;;;;;13.93;37.27;102372.03;5069986;28;20028;-74